createdAt,value
2022-08-07T00:00:26.618Z,18.65
2022-08-07T00:02:56.061Z,18.63
2022-08-07T00:05:24.688Z,18.53
2022-08-07T00:07:59.545Z,18.62
2022-08-07T00:10:30.041Z,18.41
2022-08-07T00:13:09.866Z,18.44
2022-08-07T00:15:51.632Z,18.13
2022-08-07T00:18:24.101Z,18.22
2022-08-07T00:20:54.553Z,18.34
2022-08-07T00:23:23.029Z,18.26
2022-08-07T00:26:00.100Z,18.21
2022-08-07T00:28:34.020Z,18.26
2022-08-07T00:31:06.453Z,18.16
2022-08-07T00:33:42.365Z,18.11
2022-08-07T00:36:11.336Z,18.10
2022-08-07T00:38:40.479Z,18.04
2022-08-07T00:41:09.913Z,17.95
2022-08-07T00:44:01.924Z,17.86
2022-08-07T00:46:33.220Z,18.24
2022-08-07T00:49:03.561Z,18.02
2022-08-07T00:51:57.435Z,17.91
2022-08-07T00:54:20.873Z,17.93
2022-08-07T00:56:51.629Z,17.74
2022-08-07T00:59:35.395Z,17.77
2022-08-07T01:02:08.798Z,17.74
2022-08-07T01:04:43.178Z,17.68
2022-08-07T01:07:12.710Z,17.98
2022-08-07T01:10:06.897Z,17.75
2022-08-07T01:12:31.270Z,17.78
2022-08-07T01:15:03.939Z,17.59
2022-08-07T01:17:33.921Z,17.50
2022-08-07T01:20:08.054Z,17.39
2022-08-07T01:22:54.037Z,17.59
2022-08-07T01:25:54.354Z,17.70
2022-08-07T01:28:16.184Z,17.58
2022-08-07T01:30:46.835Z,17.56
2022-08-07T01:33:17.735Z,17.47
2022-08-07T01:35:53.783Z,17.44
2022-08-07T01:38:29.258Z,17.36
2022-08-07T01:41:04.899Z,17.55
2022-08-07T01:43:38.540Z,17.41
2022-08-07T01:46:08.501Z,17.36
2022-08-07T01:48:46.634Z,17.20
2022-08-07T01:52:01.071Z,17.20
2022-08-07T01:54:33.146Z,17.14
2022-08-07T01:57:08.468Z,17.14
2022-08-07T01:59:44.061Z,17.34
2022-08-07T02:03:12.566Z,17.31
2022-08-07T02:05:16.142Z,17.22
2022-08-07T02:08:13.927Z,17.08
2022-08-07T02:10:55.071Z,17.04
2022-08-07T02:13:57.768Z,17.10
2022-08-07T02:16:28.557Z,17.03
2022-08-07T02:19:05.394Z,17.12
2022-08-07T02:21:58.665Z,16.98
2022-08-07T02:24:30.012Z,16.92
2022-08-07T02:27:02.548Z,16.89
2022-08-07T02:29:34.364Z,16.90
2022-08-07T02:32:10.891Z,16.94
2022-08-07T02:34:51.094Z,16.72
2022-08-07T02:37:23.083Z,16.66
2022-08-07T02:40:11.946Z,16.67
2022-08-07T02:42:48.924Z,16.71
2022-08-07T02:45:58.230Z,16.63
2022-08-07T02:48:10.257Z,16.47
2022-08-07T02:50:45.903Z,16.38
2022-08-07T02:53:19.493Z,16.37
2022-08-07T02:56:04.287Z,16.34
2022-08-07T02:58:39.860Z,16.33
2022-08-07T03:01:19.056Z,16.33
2022-08-07T03:04:07.729Z,16.24
2022-08-07T03:06:42.025Z,16.43
2022-08-07T03:09:14.517Z,16.36
2022-08-07T03:12:04.538Z,16.25
2022-08-07T03:14:36.924Z,16.35
2022-08-07T03:17:06.137Z,16.24
2022-08-07T03:19:38.195Z,16.19
2022-08-07T03:22:19.040Z,16.39
2022-08-07T03:24:48.035Z,16.26
2022-08-07T03:27:29.891Z,16.27
2022-08-07T03:30:03.812Z,16.45
2022-08-07T03:32:37.220Z,16.48
2022-08-07T03:35:17.836Z,16.25
2022-08-07T03:37:53.798Z,16.21
2022-08-07T03:40:30.816Z,16.15
2022-08-07T03:43:10.014Z,16.28
2022-08-07T03:45:48.733Z,16.28
2022-08-07T03:48:23.099Z,16.08
2022-08-07T03:50:57.643Z,16.14
2022-08-07T03:54:05.759Z,16.27
2022-08-07T03:56:33.463Z,16.32
2022-08-07T03:59:13.456Z,16.41
2022-08-07T04:01:49.793Z,16.14
2022-08-07T04:04:23.241Z,16.18
2022-08-07T04:07:00.164Z,16.01
2022-08-07T04:09:44.658Z,15.96
2022-08-07T04:12:27.370Z,16.05
2022-08-07T04:15:00.133Z,16.00
2022-08-07T04:18:31.361Z,15.95
2022-08-07T04:20:22.822Z,16.12
2022-08-07T04:23:01.294Z,15.97
2022-08-07T04:25:39.239Z,16.14
2022-08-07T04:28:10.300Z,15.97
2022-08-07T04:30:55.240Z,16.02
2022-08-07T04:33:30.639Z,15.98
2022-08-07T04:36:00.048Z,16.05
2022-08-07T04:38:34.846Z,16.12
2022-08-07T04:41:03.355Z,16.20
2022-08-07T04:44:12.690Z,16.21
2022-08-07T04:46:59.611Z,16.10
2022-08-07T04:49:57.534Z,16.05
2022-08-07T04:52:37.909Z,16.20
2022-08-07T04:58:10.890Z,16.16
2022-08-07T04:58:43.131Z,16.19
2022-08-07T05:01:18.121Z,16.14
2022-08-07T05:04:07.112Z,16.08
2022-08-07T05:06:52.905Z,16.01
2022-08-07T05:09:46.232Z,16.21
2022-08-07T05:12:26.810Z,16.21
2022-08-07T05:15:15.950Z,16.51
2022-08-07T05:17:56.436Z,16.35
2022-08-07T05:20:32.364Z,16.68
2022-08-07T05:23:16.104Z,16.58
2022-08-07T05:26:13.519Z,16.51
2022-08-07T05:28:40.479Z,16.64
2022-08-07T05:31:14.532Z,16.84
2022-08-07T05:34:01.202Z,17.06
2022-08-07T05:36:36.062Z,16.75
2022-08-07T05:40:14.033Z,16.89
2022-08-07T05:42:07.523Z,17.09
2022-08-07T05:44:52.841Z,16.87
2022-08-07T05:47:38.354Z,17.09
2022-08-07T05:50:20.547Z,17.33
2022-08-07T05:52:49.013Z,17.29
2022-08-07T05:55:20.237Z,17.32
2022-08-07T05:57:50.664Z,17.32
2022-08-07T06:00:19.968Z,17.61
2022-08-07T06:02:59.393Z,17.41
2022-08-07T06:05:31.325Z,17.60
2022-08-07T06:08:30.358Z,17.40
2022-08-07T06:10:56.538Z,17.59
2022-08-07T06:14:10.897Z,17.50
2022-08-07T06:16:16.383Z,17.74
2022-08-07T06:18:51.794Z,17.78
2022-08-07T06:22:16.875Z,17.70
2022-08-07T06:24:46.328Z,17.73
2022-08-07T06:27:05.516Z,18.01
2022-08-07T06:29:35.185Z,18.06
2022-08-07T06:32:08.265Z,18.46
2022-08-07T06:34:36.483Z,18.32
2022-08-07T06:37:09.185Z,18.21
2022-08-07T06:40:13.502Z,18.39
2022-08-07T06:42:38.078Z,18.11
2022-08-07T06:45:32.826Z,18.36
2022-08-07T06:48:06.455Z,18.41
2022-08-07T06:50:47.925Z,18.61
2022-08-07T06:54:12.131Z,18.97
2022-08-07T06:56:15.982Z,18.57
2022-08-07T07:00:14.350Z,18.69
2022-08-07T07:01:48.705Z,18.89
2022-08-07T07:04:32.886Z,18.87
2022-08-07T07:07:10.521Z,19.32
2022-08-07T07:09:52.960Z,19.18
2022-08-07T07:12:33.597Z,19.22
2022-08-07T07:15:16.172Z,19.20
2022-08-07T07:18:00.139Z,19.32
2022-08-07T07:20:33.411Z,19.21
2022-08-07T07:24:09.134Z,19.41
2022-08-07T07:26:33.868Z,19.34
2022-08-07T07:29:40.657Z,19.51
2022-08-07T07:31:44.259Z,19.51
2022-08-07T07:34:17.890Z,19.68
2022-08-07T07:36:54.011Z,19.76
2022-08-07T07:39:23.584Z,19.62
2022-08-07T07:42:13.320Z,19.81
2022-08-07T07:44:44.977Z,20.37
2022-08-07T07:47:22.838Z,20.73
2022-08-07T07:50:33.945Z,20.21
2022-08-07T07:52:46.886Z,20.29
2022-08-07T07:55:19.135Z,20.18
2022-08-07T07:57:53.777Z,20.30
2022-08-07T08:00:31.228Z,20.52
2022-08-07T08:03:09.312Z,20.75
2022-08-07T08:05:54.419Z,20.70
2022-08-07T08:08:34.281Z,20.74
2022-08-07T08:11:09.305Z,20.82
2022-08-07T08:13:54.028Z,21.02
2022-08-07T08:16:31.194Z,21.02
2022-08-07T08:19:17.271Z,20.82
2022-08-07T08:22:10.824Z,20.87
2022-08-07T08:25:09.447Z,21.30
2022-08-07T08:27:56.785Z,21.13
2022-08-07T08:30:29.212Z,21.23
2022-08-07T08:33:01.635Z,21.36
2022-08-07T08:35:39.524Z,21.24
2022-08-07T08:38:17.953Z,21.54
2022-08-07T08:40:56.978Z,21.71
2022-08-07T08:43:42.041Z,21.74
2022-08-07T08:46:21.862Z,21.54
2022-08-07T08:48:58.729Z,21.67
2022-08-07T08:52:13.391Z,21.81
2022-08-07T08:54:27.262Z,22.00
2022-08-07T08:56:58.742Z,21.98
2022-08-07T08:59:42.028Z,21.96
2022-08-07T09:02:35.293Z,22.13
2022-08-07T09:05:37.458Z,22.48
2022-08-07T09:08:28.785Z,22.35
2022-08-07T09:11:07.485Z,22.61
2022-08-07T09:13:43.245Z,22.69
2022-08-07T09:16:20.575Z,22.67
2022-08-07T09:19:44.765Z,22.85
2022-08-07T09:24:28.983Z,22.95
2022-08-07T09:25:17.476Z,23.15
2022-08-07T09:28:00.929Z,23.56
2022-08-07T09:30:38.577Z,23.52
2022-08-07T09:33:41.259Z,23.75
2022-08-07T09:36:15.981Z,24.01
2022-08-07T09:38:53.755Z,23.92
2022-08-07T09:41:43.179Z,23.86
2022-08-07T09:44:29.998Z,24.33
2022-08-07T09:47:52.479Z,24.45
2022-08-07T09:50:19.636Z,24.79
2022-08-07T09:52:53.869Z,25.21
2022-08-07T09:56:02.796Z,25.23
2022-08-07T09:58:48.833Z,25.49
2022-08-07T10:01:53.044Z,25.79
2022-08-07T10:04:38.337Z,26.43
2022-08-07T10:07:31.729Z,27.72
2022-08-07T10:10:12.088Z,29.48
2022-08-07T10:13:29.862Z,31.03
2022-08-07T10:16:19.212Z,32.71
2022-08-07T10:19:12.074Z,32.36
2022-08-07T10:22:16.988Z,33.18
2022-08-07T10:25:06.782Z,33.25
2022-08-07T10:27:58.648Z,32.66
2022-08-07T10:30:38.122Z,31.70
2022-08-07T10:34:06.602Z,31.34
2022-08-07T10:36:29.835Z,30.58
2022-08-07T10:39:05.427Z,31.38
2022-08-07T10:41:47.473Z,31.73
2022-08-07T10:44:37.923Z,30.80
2022-08-07T10:47:26.967Z,30.24
2022-08-07T10:50:16.867Z,29.75
2022-08-07T10:53:05.242Z,30.43
2022-08-07T10:55:45.314Z,30.85
2022-08-07T10:58:32.985Z,31.08
2022-08-07T11:01:23.952Z,31.52
2022-08-07T11:04:23.372Z,30.96
2022-08-07T11:07:02.328Z,31.44
2022-08-07T11:10:10.185Z,31.47
2022-08-07T11:12:35.284Z,31.93
2022-08-07T11:15:09.509Z,33.12
2022-08-07T11:17:48.004Z,33.63
2022-08-07T11:20:22.487Z,33.84
2022-08-07T11:23:12.491Z,35.25
2022-08-07T11:25:54.205Z,34.49
2022-08-07T11:28:27.804Z,34.84
2022-08-07T11:31:03.418Z,34.11
2022-08-07T11:33:54.198Z,33.90
2022-08-07T11:36:40.483Z,34.38
2022-08-07T11:39:21.624Z,34.10
2022-08-07T11:42:03.144Z,34.58
2022-08-07T11:44:52.274Z,34.76
2022-08-07T11:47:56.487Z,34.95
2022-08-07T11:50:57.329Z,35.02
2022-08-07T11:53:43.423Z,34.91
2022-08-07T11:56:53.050Z,34.22
2022-08-07T12:00:11.996Z,35.30
2022-08-07T12:02:52.515Z,34.82
2022-08-07T12:05:47.503Z,34.71
2022-08-07T12:08:31.605Z,35.25
2022-08-07T12:11:20.998Z,34.65
2022-08-07T12:13:58.083Z,34.70
2022-08-07T12:16:30.524Z,33.67
2022-08-07T12:19:14.756Z,33.21
2022-08-07T12:22:38.654Z,33.16
2022-08-07T12:26:00.319Z,33.98
2022-08-07T12:28:12.800Z,33.92
2022-08-07T12:30:46.488Z,33.57
2022-08-07T12:33:28.084Z,33.55
2022-08-07T12:36:02.388Z,33.72
2022-08-07T12:38:42.519Z,33.74
2022-08-07T12:41:17.387Z,33.65
2022-08-07T12:44:04.500Z,33.55
2022-08-07T12:46:56.245Z,34.09
2022-08-07T12:49:44.682Z,33.54
2022-08-07T12:52:33.895Z,33.22
2022-08-07T12:55:09.742Z,33.27
2022-08-07T12:58:00.891Z,33.25
2022-08-07T13:00:41.778Z,32.88
2022-08-07T13:04:02.013Z,32.68
2022-08-07T13:07:00.051Z,32.90
2022-08-07T13:10:21.572Z,33.21
2022-08-07T13:12:43.360Z,32.96
2022-08-07T13:15:29.583Z,32.27
2022-08-07T13:18:26.470Z,32.85
2022-08-07T13:21:07.236Z,32.78
2022-08-07T13:24:02.052Z,32.41
2022-08-07T13:26:39.609Z,31.93
2022-08-07T13:29:17.581Z,31.56
2022-08-07T13:31:57.449Z,31.66
2022-08-07T13:34:36.572Z,31.10
2022-08-07T13:37:19.810Z,31.43
2022-08-07T13:40:35.061Z,31.74
2022-08-07T13:43:02.173Z,31.30
2022-08-07T13:46:11.577Z,31.51
2022-08-07T13:48:33.708Z,30.55
2022-08-07T13:51:26.984Z,31.11
2022-08-07T13:54:01.697Z,31.17
2022-08-07T13:56:40.951Z,31.31
2022-08-07T13:59:25.569Z,31.03
2022-08-07T14:02:04.312Z,30.60
2022-08-07T14:04:38.034Z,30.51
2022-08-07T14:07:17.140Z,30.51
2022-08-07T14:10:00.912Z,31.00
2022-08-07T14:12:49.140Z,30.39
2022-08-07T14:15:31.741Z,30.13
2022-08-07T14:18:15.936Z,30.08
2022-08-07T14:21:07.874Z,30.21
2022-08-07T14:24:00.391Z,30.33
2022-08-07T14:26:38.467Z,29.91
2022-08-07T14:30:05.847Z,29.48
2022-08-07T14:32:02.257Z,29.54
2022-08-07T14:34:34.122Z,29.77
2022-08-07T14:37:17.061Z,29.84
2022-08-07T14:40:16.273Z,29.40
2022-08-07T14:43:01.399Z,29.24
2022-08-07T14:45:46.301Z,29.10
2022-08-07T14:48:19.898Z,29.54
2022-08-07T14:50:51.805Z,29.52
2022-08-07T14:54:08.937Z,29.10
2022-08-07T14:56:13.109Z,29.21
2022-08-07T14:58:54.974Z,29.11
2022-08-07T15:01:28.578Z,28.97
2022-08-07T15:04:12.598Z,28.99
2022-08-07T15:06:47.925Z,29.04
2022-08-07T15:09:59.769Z,28.93
2022-08-07T15:12:25.971Z,29.14
2022-08-07T15:15:07.416Z,28.88
2022-08-07T15:17:55.531Z,28.77
2022-08-07T15:25:12.827Z,28.90
2022-08-07T15:26:21.103Z,28.55
2022-08-07T15:28:59.437Z,28.66
2022-08-07T15:32:00.657Z,28.69
2022-08-07T15:34:36.021Z,28.73
2022-08-07T15:37:07.416Z,28.37
2022-08-07T15:39:56.828Z,28.19
2022-08-07T15:42:51.771Z,28.51
2022-08-07T15:45:56.361Z,28.56
2022-08-07T15:48:26.016Z,28.38
2022-08-07T15:51:08.837Z,28.25
2022-08-07T15:53:51.796Z,28.53
2022-08-07T15:56:24.891Z,28.62
2022-08-07T15:58:57.922Z,28.38
2022-08-07T16:01:38.588Z,28.18
2022-08-07T16:04:15.267Z,28.25
2022-08-07T16:06:49.357Z,28.25
2022-08-07T16:09:24.206Z,28.26
2022-08-07T16:12:28.681Z,27.96
2022-08-07T16:15:55.344Z,27.64
2022-08-07T16:18:49.951Z,27.73
2022-08-07T16:22:02.058Z,27.88
2022-08-07T16:24:33.614Z,27.78
2022-08-07T16:27:18.941Z,28.19
2022-08-07T16:30:10.694Z,27.68
2022-08-07T16:34:03.354Z,27.74
2022-08-07T16:36:19.869Z,27.81
2022-08-07T16:39:04.261Z,27.94
2022-08-07T16:41:54.478Z,27.52
2022-08-07T16:45:14.195Z,27.74
2022-08-07T16:47:59.248Z,27.65
2022-08-07T16:50:52.549Z,27.67
2022-08-07T16:54:06.463Z,27.54
2022-08-07T16:56:53.283Z,27.37
2022-08-07T16:59:48.015Z,27.58
2022-08-07T17:02:52.431Z,27.45
2022-08-07T17:06:26.568Z,27.44
2022-08-07T17:08:57.214Z,27.45
2022-08-07T17:12:01.401Z,27.06
2022-08-07T17:14:30.594Z,27.21
2022-08-07T17:17:02.285Z,27.32
2022-08-07T17:20:03.497Z,27.15
2022-08-07T17:22:38.241Z,27.03
2022-08-07T17:25:15.937Z,26.96
2022-08-07T17:27:56.128Z,26.81
2022-08-07T17:30:31.846Z,26.71
2022-08-07T17:34:09.558Z,26.66
2022-08-07T17:36:04.212Z,26.50
2022-08-07T17:38:54.604Z,26.37
2022-08-07T17:42:03.955Z,26.40
2022-08-07T17:44:43.935Z,26.50
2022-08-07T17:47:42.107Z,26.34
2022-08-07T17:50:19.538Z,26.32
2022-08-07T17:52:58.895Z,26.23
2022-08-07T17:56:00.975Z,26.55
2022-08-07T17:58:31.523Z,26.15
2022-08-07T18:01:18.227Z,26.12
2022-08-07T18:04:16.802Z,26.03
2022-08-07T18:07:19.144Z,25.78
2022-08-07T18:10:05.930Z,25.88
2022-08-07T18:13:09.871Z,26.01
2022-08-07T18:15:51.878Z,25.88
2022-08-07T18:21:01.892Z,25.71
2022-08-07T18:21:57.799Z,25.60
2022-08-07T18:24:33.776Z,25.49
2022-08-07T18:27:38.503Z,25.39
2022-08-07T18:30:33.112Z,25.20
2022-08-07T18:33:55.728Z,25.09
2022-08-07T18:36:33.807Z,25.01
2022-08-07T18:40:07.209Z,24.85
2022-08-07T18:42:18.587Z,24.80
2022-08-07T18:45:43.814Z,24.71
2022-08-07T18:48:00.687Z,24.64
2022-08-07T18:51:08.414Z,24.49
2022-08-07T18:53:54.189Z,24.61
2022-08-07T18:56:36.539Z,24.41
2022-08-07T18:59:47.431Z,24.39
2022-08-07T19:02:36.498Z,24.54
2022-08-07T19:05:15.747Z,24.29
2022-08-07T19:07:58.728Z,24.29
2022-08-07T19:10:49.837Z,24.15
2022-08-07T19:13:26.609Z,24.09
2022-08-07T19:17:01.484Z,23.90
2022-08-07T19:18:59.681Z,23.90
2022-08-07T19:21:44.102Z,23.95
2022-08-07T19:24:30.701Z,23.74
2022-08-07T19:28:58.137Z,23.64
2022-08-07T19:31:01.706Z,23.52
2022-08-07T19:32:53.324Z,23.42
2022-08-07T19:35:34.224Z,23.50
2022-08-07T19:38:15.753Z,23.46
2022-08-07T19:40:49.248Z,23.33
2022-08-07T19:43:48.889Z,23.39
2022-08-07T19:46:15.929Z,23.31
2022-08-07T19:48:54.111Z,23.25
2022-08-07T19:51:50.812Z,23.37
2022-08-07T19:54:33.671Z,23.31
2022-08-07T19:58:01.029Z,23.06
2022-08-07T20:00:03.785Z,23.13
2022-08-07T20:02:41.078Z,23.13
2022-08-07T20:05:27.868Z,22.91
2022-08-07T20:08:01.734Z,22.82
2022-08-07T20:10:54.693Z,22.77
2022-08-07T20:13:32.071Z,22.72
2022-08-07T20:16:03.274Z,22.82
2022-08-07T20:18:34.831Z,22.60
2022-08-07T20:21:14.807Z,22.63
2022-08-07T20:23:54.885Z,22.59
2022-08-07T20:26:38.993Z,22.75
2022-08-07T20:29:48.883Z,22.62
2022-08-07T20:32:23.222Z,22.46
2022-08-07T20:34:57.227Z,22.39
2022-08-07T20:37:33.595Z,22.36
2022-08-07T20:40:32.280Z,22.46
2022-08-07T20:42:58.944Z,22.17
2022-08-07T20:45:33.492Z,22.08
2022-08-07T20:48:29.583Z,22.20
2022-08-07T20:51:01.338Z,22.21
2022-08-07T20:54:03.609Z,22.20
2022-08-07T20:56:25.925Z,22.08
2022-08-07T20:58:58.638Z,22.07
2022-08-07T21:01:29.791Z,21.97
2022-08-07T21:04:22.671Z,22.00
2022-08-07T21:06:56.737Z,21.96
2022-08-07T21:09:35.462Z,21.91
2022-08-07T21:12:28.677Z,22.01
2022-08-07T21:14:58.382Z,21.97
2022-08-07T21:18:02.636Z,22.01
2022-08-07T21:20:30.497Z,22.03
2022-08-07T21:23:08.751Z,22.03
2022-08-07T21:25:56.969Z,21.90
2022-08-07T21:28:49.759Z,21.75
2022-08-07T21:31:49.361Z,21.70
2022-08-07T21:34:31.772Z,21.59
2022-08-07T21:37:07.378Z,21.71
2022-08-07T21:39:51.880Z,21.67
2022-08-07T21:42:42.449Z,21.68
2022-08-07T21:46:09.387Z,21.53
2022-08-07T21:48:28.706Z,21.68
2022-08-07T21:51:20.025Z,21.39
2022-08-07T21:54:01.290Z,21.68
2022-08-07T21:56:47.112Z,21.43
2022-08-07T22:00:03.015Z,21.41
2022-08-07T22:02:32.208Z,21.28
2022-08-07T22:05:03.785Z,21.42
2022-08-07T22:07:58.396Z,21.56
2022-08-07T22:10:32.746Z,21.75
2022-08-07T22:13:05.687Z,21.30
2022-08-07T22:16:44.520Z,21.23
2022-08-07T22:18:40.946Z,21.10
2022-08-07T22:21:15.596Z,21.42
2022-08-07T22:23:53.662Z,21.21
2022-08-07T22:26:28.266Z,21.09
2022-08-07T22:29:05.011Z,21.03
2022-08-07T22:32:03.479Z,21.15
2022-08-07T22:34:41.935Z,21.07
2022-08-07T22:38:03.645Z,20.93
2022-08-07T22:40:28.890Z,21.03
2022-08-07T22:43:04.206Z,20.97
2022-08-07T22:46:21.519Z,20.85
2022-08-07T22:48:58.977Z,20.92
2022-08-07T22:52:10.218Z,20.82
2022-08-07T22:54:52.451Z,20.84
2022-08-07T22:57:51.029Z,20.89
2022-08-07T23:00:28.651Z,20.72
2022-08-07T23:03:13.914Z,20.72
2022-08-07T23:06:15.358Z,20.68
2022-08-07T23:08:58.478Z,20.62
2022-08-07T23:11:59.629Z,20.77
2022-08-07T23:15:07.825Z,20.71
2022-08-07T23:17:54.695Z,20.67
2022-08-07T23:20:53.546Z,20.73
2022-08-07T23:24:06.781Z,20.54
2022-08-07T23:27:02.961Z,20.38
2022-08-07T23:30:38.666Z,20.27
2022-08-07T23:34:34.420Z,20.34
2022-08-07T23:36:17.467Z,20.44
2022-08-07T23:39:08.628Z,20.58
2022-08-07T23:42:04.247Z,20.25
2022-08-07T23:45:05.084Z,20.31
2022-08-07T23:48:01.709Z,20.20
2022-08-07T23:50:39.515Z,20.07
2022-08-07T23:53:49.634Z,19.95
2022-08-07T23:56:21.408Z,20.05
2022-08-07T23:59:00.170Z,19.91
